createdAt,value
2019-02-24T00:01:19.316Z,87.30
2019-02-24T00:03:47.461Z,87.90
2019-02-24T00:06:15.256Z,87.20
2019-02-24T00:08:43.202Z,87.60
2019-02-24T00:11:12.300Z,86.60
2019-02-24T00:13:40.085Z,85.80
2019-02-24T00:16:08.380Z,85.00
2019-02-24T00:18:36.935Z,85.90
2019-02-24T00:21:04.706Z,87.20
2019-02-24T00:23:32.680Z,88.60
2019-02-24T00:26:00.443Z,89.50
2019-02-24T00:28:28.219Z,88.20
2019-02-24T00:30:56.293Z,87.00
2019-02-24T00:33:24.071Z,85.70
2019-02-24T00:35:51.962Z,83.70
2019-02-24T00:38:20.858Z,83.40
2019-02-24T00:40:48.749Z,83.00
2019-02-24T00:43:20.564Z,83.20
2019-02-24T00:45:48.466Z,83.50
2019-02-24T00:48:16.235Z,83.00
2019-02-24T00:50:44.363Z,83.50
2019-02-24T00:53:12.303Z,83.80
2019-02-24T00:55:40.098Z,83.20
2019-02-24T00:58:15.939Z,82.90
2019-02-24T01:00:39.563Z,82.20
2019-02-24T01:03:07.319Z,80.90
2019-02-24T01:05:35.155Z,80.10
2019-02-24T01:08:03.057Z,79.50
2019-02-24T01:10:30.935Z,78.40
2019-02-24T01:12:58.696Z,79.50
2019-02-24T01:15:28.516Z,79.80
2019-02-24T01:17:58.742Z,79.80
2019-02-24T01:20:26.712Z,81.20
2019-02-24T01:22:54.509Z,81.80
2019-02-24T01:25:22.277Z,81.10
2019-02-24T01:27:50.224Z,81.90
2019-02-24T01:30:18.194Z,81.80
2019-02-24T01:32:45.974Z,81.10
2019-02-24T01:35:15.786Z,80.00
2019-02-24T01:37:43.804Z,80.50
2019-02-24T01:40:12.782Z,79.80
2019-02-24T01:42:40.705Z,80.80
2019-02-24T01:45:11.712Z,80.10
2019-02-24T01:47:39.519Z,81.20
2019-02-24T01:50:08.027Z,82.20
2019-02-24T01:52:35.840Z,83.20
2019-02-24T01:55:04.174Z,84.40
2019-02-24T01:57:31.956Z,86.20
2019-02-24T01:59:59.923Z,86.20
2019-02-24T02:02:27.877Z,86.00
2019-02-24T02:04:55.806Z,86.90
2019-02-24T02:07:23.732Z,86.70
2019-02-24T02:09:51.508Z,87.30
2019-02-24T02:12:20.399Z,87.90
2019-02-24T02:14:48.377Z,87.30
2019-02-24T02:17:16.280Z,87.80
2019-02-24T02:19:44.051Z,87.80
2019-02-24T02:22:14.047Z,88.20
2019-02-24T02:24:42.006Z,88.30
2019-02-24T02:27:09.802Z,89.10
2019-02-24T02:29:37.574Z,89.20
2019-02-24T02:32:05.517Z,90.00
2019-02-24T02:34:33.288Z,90.40
2019-02-24T02:37:01.088Z,90.40
2019-02-24T02:39:30.772Z,89.60
2019-02-24T02:41:58.745Z,90.10
2019-02-24T02:44:26.721Z,90.60
2019-02-24T02:46:54.695Z,90.60
2019-02-24T02:49:22.547Z,91.20
2019-02-24T02:51:52.129Z,91.60
2019-02-24T02:54:20.053Z,91.40
2019-02-24T02:56:47.820Z,90.80
2019-02-24T02:59:15.984Z,91.10
2019-02-24T03:01:43.939Z,90.90
2019-02-24T03:04:12.015Z,90.80
2019-02-24T03:06:54.327Z,90.80
2019-02-24T03:09:22.322Z,90.00
2019-02-24T03:11:50.247Z,89.50
2019-02-24T03:14:18.248Z,87.40
2019-02-24T03:16:46.578Z,87.60
2019-02-24T03:19:14.455Z,87.20
2019-02-24T03:21:42.603Z,86.90
2019-02-24T03:24:10.471Z,88.40
2019-02-24T03:26:38.409Z,87.30
2019-02-24T03:29:06.740Z,87.10
2019-02-24T03:31:35.673Z,88.20
2019-02-24T03:34:03.481Z,88.30
2019-02-24T03:36:31.475Z,87.50
2019-02-24T03:38:59.468Z,87.40
2019-02-24T03:41:28.277Z,86.90
2019-02-24T03:43:56.412Z,87.30
2019-02-24T03:46:24.379Z,88.10
2019-02-24T03:48:52.357Z,89.40
2019-02-24T03:51:20.428Z,87.70
2019-02-24T03:53:48.512Z,87.20
2019-02-24T03:56:16.345Z,88.70
2019-02-24T03:58:44.351Z,90.30
2019-02-24T04:01:12.860Z,90.30
2019-02-24T04:03:41.723Z,90.00
2019-02-24T04:06:09.702Z,90.00
2019-02-24T04:08:37.500Z,88.70
2019-02-24T04:11:05.303Z,89.70
2019-02-24T04:13:33.214Z,90.20
2019-02-24T04:16:01.139Z,90.90
2019-02-24T04:18:29.172Z,90.70
2019-02-24T04:20:57.052Z,90.60
2019-02-24T04:23:25.007Z,90.50
2019-02-24T04:25:52.791Z,91.10
2019-02-24T04:28:22.358Z,91.10
2019-02-24T04:30:50.256Z,91.20
2019-02-24T04:33:18.030Z,91.00
2019-02-24T04:35:46.098Z,91.20
2019-02-24T04:38:15.935Z,91.00
2019-02-24T04:40:43.611Z,91.80
2019-02-24T04:43:11.561Z,91.90
2019-02-24T04:45:41.119Z,91.80
2019-02-24T04:48:09.171Z,91.50
2019-02-24T04:50:37.111Z,91.60
2019-02-24T04:53:04.905Z,91.70
2019-02-24T04:55:32.705Z,91.50
2019-02-24T04:58:00.724Z,91.20
2019-02-24T05:00:28.627Z,91.90
2019-02-24T05:02:56.545Z,92.10
2019-02-24T05:05:24.429Z,91.80
2019-02-24T05:07:52.197Z,91.70
2019-02-24T05:10:19.988Z,92.50
2019-02-24T05:12:47.963Z,92.90
2019-02-24T05:15:16.136Z,93.20
2019-02-24T05:17:44.153Z,92.90
2019-02-24T05:20:11.915Z,92.70
2019-02-24T05:22:39.965Z,93.10
2019-02-24T05:25:07.783Z,92.70
2019-02-24T05:27:35.692Z,92.80
2019-02-24T05:30:03.987Z,92.70
2019-02-24T05:32:31.857Z,93.00
2019-02-24T05:34:59.822Z,93.30
2019-02-24T05:37:27.597Z,93.40
2019-02-24T05:39:55.386Z,93.90
2019-02-24T05:42:23.335Z,94.10
2019-02-24T05:44:51.104Z,94.50
2019-02-24T05:47:18.951Z,94.80
2019-02-24T05:49:46.940Z,95.10
2019-02-24T05:52:14.710Z,95.70
2019-02-24T05:54:43.708Z,95.60
2019-02-24T05:57:13.291Z,95.30
2019-02-24T05:59:43.049Z,94.90
2019-02-24T06:02:10.834Z,95.00
2019-02-24T06:04:38.605Z,94.90
2019-02-24T06:07:06.550Z,95.00
2019-02-24T06:09:34.631Z,95.00
2019-02-24T06:12:02.418Z,94.80
2019-02-24T06:14:30.360Z,95.10
2019-02-24T06:16:58.135Z,94.50
2019-02-24T06:19:25.909Z,94.60
2019-02-24T06:21:53.874Z,94.80
2019-02-24T06:24:21.636Z,95.10
2019-02-24T06:26:49.434Z,94.90
2019-02-24T06:29:17.404Z,95.10
2019-02-24T06:31:45.192Z,95.00
2019-02-24T06:34:13.104Z,94.90
2019-02-24T06:36:40.900Z,94.80
2019-02-24T06:39:08.871Z,94.70
2019-02-24T06:41:36.678Z,95.00
2019-02-24T06:44:04.625Z,94.70
2019-02-24T06:46:32.483Z,95.20
2019-02-24T06:49:00.258Z,94.90
2019-02-24T06:51:28.228Z,94.60
2019-02-24T06:53:56.003Z,94.70
2019-02-24T06:56:23.766Z,95.00
2019-02-24T06:58:51.748Z,96.00
2019-02-24T07:01:19.531Z,96.30
2019-02-24T07:03:47.311Z,96.70
2019-02-24T07:06:15.249Z,96.20
2019-02-24T07:08:43.233Z,96.60
2019-02-24T07:11:11.036Z,96.20
2019-02-24T07:13:38.842Z,96.20
2019-02-24T07:16:06.739Z,96.20
2019-02-24T07:18:34.739Z,95.90
2019-02-24T07:21:02.680Z,95.50
2019-02-24T07:23:30.460Z,95.20
2019-02-24T07:25:58.427Z,94.70
2019-02-24T07:28:26.205Z,95.30
2019-02-24T07:30:53.969Z,94.50
2019-02-24T07:33:21.934Z,94.40
2019-02-24T07:35:49.738Z,94.30
2019-02-24T07:38:17.525Z,94.00
2019-02-24T07:40:45.454Z,93.80
2019-02-24T07:43:13.239Z,94.00
2019-02-24T07:45:41.013Z,93.40
2019-02-24T07:48:09.259Z,93.00
2019-02-24T07:50:37.033Z,92.40
2019-02-24T07:53:05.422Z,92.60
2019-02-24T07:55:33.191Z,92.60
2019-02-24T07:58:00.992Z,92.50
2019-02-24T08:00:32.697Z,92.50
2019-02-24T08:03:00.498Z,92.80
2019-02-24T08:05:28.321Z,92.50
2019-02-24T08:07:56.336Z,91.90
2019-02-24T08:10:24.116Z,90.80
2019-02-24T08:12:51.888Z,90.10
2019-02-24T08:15:21.817Z,89.70
2019-02-24T08:17:49.607Z,88.30
2019-02-24T08:20:17.643Z,88.50
2019-02-24T08:22:45.433Z,87.90
2019-02-24T08:25:13.579Z,89.00
2019-02-24T08:27:41.355Z,88.80
2019-02-24T08:30:10.024Z,88.90
2019-02-24T08:32:38.116Z,90.30
2019-02-24T08:35:06.453Z,91.10
2019-02-24T08:37:34.371Z,91.10
2019-02-24T08:40:02.197Z,90.80
2019-02-24T08:42:30.130Z,90.20
2019-02-24T08:44:58.115Z,90.50
2019-02-24T08:47:26.060Z,90.30
2019-02-24T08:49:55.650Z,90.80
2019-02-24T08:52:23.410Z,90.30
2019-02-24T08:54:51.257Z,90.70
2019-02-24T08:57:19.097Z,90.20
2019-02-24T08:59:47.002Z,90.40
2019-02-24T09:02:15.030Z,90.10
2019-02-24T09:04:42.825Z,84.00
2019-02-24T09:07:10.778Z,83.00
2019-02-24T09:09:38.854Z,79.40
2019-02-24T09:12:06.739Z,77.10
2019-02-24T09:14:34.690Z,79.60
2019-02-24T09:17:02.468Z,78.60
2019-02-24T09:19:30.232Z,72.90
2019-02-24T09:21:58.312Z,72.40
2019-02-24T09:24:26.179Z,70.30
2019-02-24T09:26:54.283Z,66.20
2019-02-24T09:29:22.240Z,65.00
2019-02-24T09:31:50.040Z,65.60
2019-02-24T09:34:19.303Z,63.60
2019-02-24T09:36:47.284Z,58.20
2019-02-24T09:39:15.077Z,60.10
2019-02-24T09:41:43.022Z,52.80
2019-02-24T09:44:10.828Z,55.70
2019-02-24T09:46:38.618Z,50.00
2019-02-24T09:49:06.740Z,55.90
2019-02-24T09:51:34.716Z,52.00
2019-02-24T09:54:02.498Z,54.20
2019-02-24T09:56:30.287Z,56.40
2019-02-24T09:58:58.193Z,54.90
2019-02-24T10:01:25.976Z,56.20
2019-02-24T10:03:53.960Z,56.60
2019-02-24T10:06:23.548Z,53.10
2019-02-24T10:08:52.678Z,51.00
2019-02-24T10:11:20.651Z,53.70
2019-02-24T10:13:48.463Z,53.10
2019-02-24T10:16:16.237Z,49.70
2019-02-24T10:18:46.933Z,49.90
2019-02-24T10:21:14.730Z,49.70
2019-02-24T10:23:42.668Z,46.40
2019-02-24T10:26:10.462Z,45.10
2019-02-24T10:28:38.410Z,42.90
2019-02-24T10:31:07.459Z,42.00
2019-02-24T10:33:37.075Z,43.00
2019-02-24T10:36:08.518Z,38.50
2019-02-24T10:38:36.331Z,36.50
2019-02-24T10:41:04.144Z,38.10
2019-02-24T10:43:32.084Z,36.70
2019-02-24T10:45:59.896Z,35.10
2019-02-24T10:48:27.851Z,35.90
2019-02-24T10:50:55.738Z,35.10
2019-02-24T10:53:23.499Z,32.90
2019-02-24T10:55:51.443Z,33.90
2019-02-24T10:58:21.219Z,33.50
2019-02-24T11:00:49.032Z,34.10
2019-02-24T11:03:17.007Z,33.90
2019-02-24T11:05:44.858Z,33.50
2019-02-24T11:08:12.901Z,28.80
2019-02-24T11:10:40.920Z,32.70
2019-02-24T11:13:08.700Z,31.30
2019-02-24T11:15:36.470Z,32.10
2019-02-24T11:18:04.395Z,29.30
2019-02-24T11:20:34.276Z,30.00
2019-02-24T11:23:02.091Z,28.40
2019-02-24T11:25:30.007Z,30.00
2019-02-24T11:27:57.796Z,27.50
2019-02-24T11:30:25.701Z,27.50
2019-02-24T11:32:53.608Z,28.60
2019-02-24T11:35:21.409Z,27.20
2019-02-24T11:37:49.308Z,25.80
2019-02-24T11:40:17.357Z,26.70
2019-02-24T11:42:45.343Z,24.90
2019-02-24T11:45:13.356Z,25.90
2019-02-24T11:47:41.169Z,26.60
2019-02-24T11:50:09.323Z,26.20
2019-02-24T11:52:37.301Z,25.30
2019-02-24T11:55:05.470Z,24.80
2019-02-24T11:57:33.481Z,25.70
2019-02-24T12:00:01.252Z,25.10
2019-02-24T12:02:34.452Z,25.20
2019-02-24T12:04:58.914Z,28.40
2019-02-24T12:07:26.744Z,24.60
2019-02-24T12:09:58.057Z,26.30
2019-02-24T12:12:25.932Z,25.30
2019-02-24T12:14:53.723Z,27.20
2019-02-24T12:17:21.645Z,24.60
2019-02-24T12:19:49.551Z,23.50
2019-02-24T12:22:17.344Z,24.60
2019-02-24T12:24:45.362Z,23.30
2019-02-24T12:27:13.385Z,24.60
2019-02-24T12:29:41.195Z,22.80
2019-02-24T12:32:09.184Z,26.00
2019-02-24T12:34:37.165Z,23.70
2019-02-24T12:37:05.152Z,23.60
2019-02-24T12:39:32.979Z,23.30
2019-02-24T12:42:00.844Z,24.00
2019-02-24T12:44:28.875Z,23.10
2019-02-24T12:46:56.665Z,23.70
2019-02-24T12:49:27.413Z,23.30
2019-02-24T12:51:55.628Z,25.00
2019-02-24T12:54:23.502Z,25.00
2019-02-24T12:56:51.281Z,25.90
2019-02-24T12:59:19.256Z,22.20
2019-02-24T13:01:47.032Z,24.60
2019-02-24T13:04:14.997Z,23.70
2019-02-24T13:06:42.801Z,21.90
2019-02-24T13:09:10.598Z,24.80
2019-02-24T13:11:39.637Z,23.80
2019-02-24T13:14:07.435Z,24.20
2019-02-24T13:16:35.224Z,22.00
2019-02-24T13:19:04.915Z,24.60
2019-02-24T13:21:32.808Z,23.70
2019-02-24T13:24:00.723Z,22.00
2019-02-24T13:26:28.794Z,23.40
2019-02-24T13:28:56.685Z,22.70
2019-02-24T13:31:24.442Z,23.00
2019-02-24T13:33:52.449Z,22.70
2019-02-24T13:36:20.348Z,22.60
2019-02-24T13:38:48.246Z,23.60
2019-02-24T13:41:16.048Z,22.90
2019-02-24T13:43:45.070Z,23.70
2019-02-24T13:46:12.985Z,22.70
2019-02-24T13:48:40.881Z,23.10
2019-02-24T13:51:08.657Z,22.70
2019-02-24T13:53:38.129Z,22.70
2019-02-24T13:56:06.344Z,22.40
2019-02-24T13:58:34.212Z,24.30
2019-02-24T14:01:02.020Z,23.00
2019-02-24T14:03:29.953Z,23.30
2019-02-24T14:05:59.605Z,24.10
2019-02-24T14:08:27.784Z,23.60
2019-02-24T14:10:55.797Z,23.30
2019-02-24T14:13:23.591Z,23.20
2019-02-24T14:15:51.562Z,23.10
2019-02-24T14:18:19.425Z,23.50
2019-02-24T14:20:47.713Z,22.70
2019-02-24T14:23:15.532Z,23.10
2019-02-24T14:25:43.329Z,22.20
2019-02-24T14:28:11.213Z,22.90
2019-02-24T14:30:39.037Z,23.70
2019-02-24T14:33:06.825Z,20.70
2019-02-24T14:35:34.760Z,22.90
2019-02-24T14:38:02.557Z,23.70
2019-02-24T14:40:30.346Z,24.10
2019-02-24T14:42:58.237Z,24.20
2019-02-24T14:45:25.997Z,24.20
2019-02-24T14:47:53.845Z,24.40
2019-02-24T14:50:22.055Z,24.30
2019-02-24T14:52:49.867Z,24.50
2019-02-24T14:55:18.007Z,23.60
2019-02-24T14:57:45.979Z,23.20
2019-02-24T15:00:14.449Z,22.10
2019-02-24T15:02:42.975Z,21.90
2019-02-24T15:05:11.394Z,22.70
2019-02-24T15:07:39.418Z,23.00
2019-02-24T15:10:09.715Z,23.60
2019-02-24T15:12:37.499Z,23.50
2019-02-24T15:15:06.911Z,23.20
2019-02-24T15:17:34.792Z,23.10
2019-02-24T15:20:02.753Z,23.50
2019-02-24T15:22:30.654Z,24.50
2019-02-24T15:24:58.449Z,24.20
2019-02-24T15:27:26.227Z,24.10
2019-02-24T15:29:54.205Z,24.30
2019-02-24T15:32:21.980Z,25.60
2019-02-24T15:34:50.702Z,24.90
2019-02-24T15:37:18.626Z,25.30
2019-02-24T15:39:46.386Z,25.50
2019-02-24T15:42:14.185Z,26.30
2019-02-24T15:44:42.051Z,25.90
2019-02-24T15:47:10.173Z,26.40
2019-02-24T15:49:40.253Z,25.80
2019-02-24T15:52:10.144Z,26.10
2019-02-24T15:54:44.513Z,25.90
2019-02-24T15:57:12.717Z,26.30
2019-02-24T15:59:40.706Z,27.30
2019-02-24T16:02:12.321Z,27.90
2019-02-24T16:04:43.470Z,28.30
2019-02-24T16:07:14.259Z,28.90
2019-02-24T16:09:46.609Z,29.70
2019-02-24T16:12:14.686Z,30.30
2019-02-24T16:14:44.431Z,30.60
2019-02-24T16:17:15.256Z,30.00
2019-02-24T16:19:43.107Z,31.60
2019-02-24T16:22:13.746Z,31.10
2019-02-24T16:24:46.675Z,31.30
2019-02-24T16:27:17.786Z,31.30
2019-02-24T16:29:50.490Z,31.20
2019-02-24T16:32:18.301Z,32.30
2019-02-24T16:34:52.358Z,33.00
2019-02-24T16:37:21.821Z,33.40
2019-02-24T16:39:54.058Z,32.70
2019-02-24T16:42:25.386Z,33.70
2019-02-24T16:44:54.904Z,34.60
2019-02-24T16:47:22.813Z,34.80
2019-02-24T16:49:50.766Z,35.60
2019-02-24T16:52:26.813Z,35.90
2019-02-24T16:54:55.464Z,37.80
2019-02-24T16:57:25.290Z,37.20
2019-02-24T16:59:53.524Z,37.30
2019-02-24T17:02:23.860Z,38.10
2019-02-24T17:04:53.486Z,37.90
2019-02-24T17:07:21.698Z,37.40
2019-02-24T17:09:54.715Z,38.10
2019-02-24T17:12:24.518Z,38.50
2019-02-24T17:14:52.487Z,38.40
2019-02-24T17:17:20.647Z,39.00
2019-02-24T17:19:48.760Z,40.20
2019-02-24T17:22:18.764Z,39.30
2019-02-24T17:24:47.058Z,40.50
2019-02-24T17:27:15.761Z,41.40
2019-02-24T17:29:45.442Z,41.50
2019-02-24T17:32:19.805Z,41.20
2019-02-24T17:34:49.389Z,42.60
2019-02-24T17:37:19.950Z,42.40
2019-02-24T17:39:47.037Z,43.80
2019-02-24T17:42:14.849Z,45.80
2019-02-24T17:44:42.960Z,46.60
2019-02-24T17:47:10.747Z,46.10
2019-02-24T17:49:39.095Z,45.70
2019-02-24T17:52:07.079Z,47.60
2019-02-24T17:54:35.167Z,48.80
2019-02-24T17:57:07.361Z,48.40
2019-02-24T17:59:40.369Z,50.70
2019-02-24T18:02:05.130Z,50.70
2019-02-24T18:04:32.928Z,50.70
2019-02-24T18:07:01.052Z,50.10
2019-02-24T18:09:28.865Z,48.80
2019-02-24T18:11:57.895Z,47.60
2019-02-24T18:14:25.680Z,48.10
2019-02-24T18:16:53.442Z,48.30
2019-02-24T18:19:21.320Z,49.20
2019-02-24T18:21:50.243Z,52.10
2019-02-24T18:24:18.053Z,52.80
2019-02-24T18:26:45.983Z,51.50
2019-02-24T18:29:13.777Z,51.80
2019-02-24T18:31:41.566Z,51.50
2019-02-24T18:34:09.533Z,51.90
2019-02-24T18:36:37.563Z,52.30
2019-02-24T18:39:05.883Z,50.00
2019-02-24T18:41:33.691Z,51.00
2019-02-24T18:44:01.691Z,51.60
2019-02-24T18:46:29.635Z,52.50
2019-02-24T18:48:57.681Z,53.60
2019-02-24T18:51:25.511Z,51.50
2019-02-24T18:53:53.475Z,51.40
2019-02-24T18:56:23.844Z,52.30
2019-02-24T18:58:51.732Z,52.50
2019-02-24T19:01:19.691Z,52.60
2019-02-24T19:03:47.496Z,52.10
2019-02-24T19:06:15.331Z,54.10
2019-02-24T19:08:43.216Z,55.20
2019-02-24T19:11:10.992Z,55.80
2019-02-24T19:13:39.138Z,55.30
2019-02-24T19:16:08.057Z,54.50
2019-02-24T19:18:36.111Z,55.50
2019-02-24T19:21:03.931Z,55.60
2019-02-24T19:23:31.713Z,58.30
2019-02-24T19:26:00.419Z,59.90
2019-02-24T19:28:28.421Z,59.60
2019-02-24T19:30:56.226Z,59.30
2019-02-24T19:33:24.013Z,60.60
2019-02-24T19:35:52.044Z,61.10
2019-02-24T19:38:19.835Z,60.30
2019-02-24T19:40:48.382Z,61.30
2019-02-24T19:43:16.474Z,60.60
2019-02-24T19:45:44.269Z,61.40
2019-02-24T19:48:12.216Z,62.20
2019-02-24T19:50:40.010Z,61.60
2019-02-24T19:53:07.953Z,60.50
2019-02-24T19:55:35.739Z,60.00
2019-02-24T19:58:03.878Z,59.90
2019-02-24T20:00:31.982Z,59.60
2019-02-24T20:03:01.569Z,60.20
2019-02-24T20:05:29.345Z,60.00
2019-02-24T20:07:58.560Z,60.50
2019-02-24T20:10:26.469Z,61.00
2019-02-24T20:12:54.240Z,60.90
2019-02-24T20:15:22.177Z,59.40
2019-02-24T20:17:52.123Z,61.70
2019-02-24T20:20:20.063Z,60.70
2019-02-24T20:22:47.839Z,62.10
2019-02-24T20:25:15.858Z,63.40
2019-02-24T20:27:43.799Z,63.80
2019-02-24T20:30:18.981Z,63.70
2019-02-24T20:32:48.101Z,63.30
2019-02-24T20:35:15.891Z,63.70
2019-02-24T20:37:43.867Z,64.00
2019-02-24T20:40:12.067Z,66.00
2019-02-24T20:42:39.871Z,66.20
2019-02-24T20:45:09.586Z,65.00
2019-02-24T20:47:37.369Z,64.90
2019-02-24T20:50:07.211Z,65.00
2019-02-24T20:52:34.979Z,64.20
2019-02-24T20:55:02.917Z,64.10
2019-02-24T20:57:30.810Z,61.60
2019-02-24T20:59:58.797Z,64.10
2019-02-24T21:02:26.726Z,64.00
2019-02-24T21:04:55.737Z,64.80
2019-02-24T21:07:23.649Z,65.70
2019-02-24T21:09:53.232Z,67.10
2019-02-24T21:12:21.117Z,69.00
2019-02-24T21:14:48.911Z,67.60
2019-02-24T21:17:16.689Z,66.50
2019-02-24T21:19:44.650Z,66.00
2019-02-24T21:22:12.530Z,65.60
2019-02-24T21:24:40.304Z,68.60
2019-02-24T21:27:08.083Z,68.30
2019-02-24T21:29:36.021Z,68.40
2019-02-24T21:32:03.840Z,67.40
2019-02-24T21:34:31.773Z,67.20
2019-02-24T21:36:59.661Z,69.80
2019-02-24T21:39:27.444Z,69.30
2019-02-24T21:41:55.375Z,67.80
2019-02-24T21:44:23.159Z,67.10
2019-02-24T21:46:50.951Z,66.50
2019-02-24T21:49:18.893Z,70.20
2019-02-24T21:51:46.678Z,70.10
2019-02-24T21:54:14.579Z,69.80
2019-02-24T21:56:42.672Z,69.30
2019-02-24T21:59:10.482Z,68.90
2019-02-24T22:01:38.291Z,68.00
2019-02-24T22:04:06.302Z,68.10
2019-02-24T22:06:34.339Z,68.00
2019-02-24T22:09:02.480Z,67.60
2019-02-24T22:11:30.392Z,68.30
2019-02-24T22:13:58.326Z,68.90
2019-02-24T22:16:26.124Z,69.20
2019-02-24T22:18:53.938Z,67.30
2019-02-24T22:21:21.834Z,68.80
2019-02-24T22:23:49.592Z,68.10
2019-02-24T22:26:17.557Z,66.10
2019-02-24T22:28:45.325Z,67.70
2019-02-24T22:31:14.035Z,67.60
2019-02-24T22:33:42.106Z,68.20
2019-02-24T22:36:09.893Z,69.00
2019-02-24T22:38:41.301Z,68.50
2019-02-24T22:41:09.204Z,68.20
2019-02-24T22:43:37.002Z,68.80
2019-02-24T22:46:04.776Z,69.10
2019-02-24T22:48:32.723Z,69.30
2019-02-24T22:51:00.523Z,68.80
2019-02-24T22:53:28.290Z,69.50
2019-02-24T22:55:56.234Z,69.50
2019-02-24T22:58:24.152Z,69.00
2019-02-24T23:01:20.318Z,69.00
2019-02-24T23:03:48.720Z,69.10
2019-02-24T23:06:16.521Z,70.10
2019-02-24T23:08:44.653Z,70.40
2019-02-24T23:11:12.591Z,70.00
2019-02-24T23:13:40.363Z,70.20
2019-02-24T23:16:08.112Z,70.50
2019-02-24T23:18:36.646Z,70.40
2019-02-24T23:21:04.746Z,69.40
2019-02-24T23:23:32.696Z,70.80
2019-02-24T23:26:00.672Z,70.50
2019-02-24T23:28:28.438Z,68.20
2019-02-24T23:30:56.371Z,69.60
2019-02-24T23:33:25.513Z,69.00
2019-02-24T23:35:53.418Z,69.30
2019-02-24T23:38:21.210Z,70.70
2019-02-24T23:40:49.130Z,71.10
2019-02-24T23:43:16.923Z,70.70
2019-02-24T23:45:44.858Z,69.70
2019-02-24T23:48:12.651Z,71.90
2019-02-24T23:50:40.441Z,70.80
2019-02-24T23:53:08.382Z,69.90
2019-02-24T23:55:36.271Z,72.50
2019-02-24T23:58:04.270Z,73.50
